Baldwin City, KS (66006)

9:58 AM CST on January 29, 2015 (GMT -0600)
Firetree | Change Station
CLOSE
Current Station
Personal Weather Station
Location: Baldwin City, KS
Elevation: 1066 ft
Nearby Weather Stations

Elev 1066 ft 38.79 °N, 95.19 °W | Updated 8 minutes ago

Overcast
Overcast
39.2 °F
Feels Like 32 °F
N
10.4
Wind Variable Wind from NW

Today
High -- | Low -- °F
--% Chance of Precip.
Yesterday
High -- | Low -- °F
Precip. -- in
7:29 AM 5:38 PM
Waxing Gibbous, 75% visible
Pressure 30.35 in
Visibility 10.0 miles
Clouds Overcast 3300 ft
Windchill 32 °F
Dew Point 29 °F
Humidity 66%
Rainfall 0.00 in
Snow Depth Not available.
UV 1 out of 12
Pollen 2.20 out of 12
Air Quality Not available.
Flu Activity Not available.
METAR KLWC 291552Z AUTO 35022G37KT 10SM OVC033 04/M03 A3034 RMK AO2 PK WND 34038/1518 SLP277 T00441033

More Conditions Fewer Conditions

Pressure 30.35 in
Visibility 10.0 miles
Clouds Overcast 3300 ft
Windchill 32 °F
Dew Point 29 °F
Humidity 66%
Rainfall 0.00 in
Snow Depth Not available.
UV 1 out of 12
Pollen 2.20 out of 12
Air Quality Not available.
Flu Activity Not available.
METAR KLWC 291552Z AUTO 35022G37KT 10SM OVC033 04/M03 A3034 RMK AO2 PK WND 34038/1518 SLP277 T00441033

More Conditions Fewer Conditions

10-Day Weather Forecast

Almanac

Astronomy

Jan. 29, 2015 Rise Set
Actual Time
Civil Twilight
Nautical Twilight
Astronomical Twilight
Moon
Length of Visible Light
Length of Day
Tomorrow will be .
, % of the Moon is Illuminated

Today's Extremes

State Highs State Lows

Community

WunderPhotos

Upload Photos

1,791,456 photos uploaded!

WunderBlogs® & News

Nearby

Air Quality

  Air Quality AQ Index Pollutant
Not available.

Snow Depth

Station Depth Elevation

Earthquake Activity

City Distance Mag. Time & Date
Minimum magnitude displayed is 2.5.

Coastal Water Temperatures

Place Temperature

Nearby Weather Stations